sensor_id;sensor_type;location;lat;lon;timestamp;P1;durP1;ratioP1;P2;durP2;ratioP2
13034;SDS011;6584;48.022;11.810;2022-12-19T00:01:03;37.50;;;19.23;;
13034;SDS011;6584;48.022;11.810;2022-12-19T00:03:33;33.05;;;18.23;;
13034;SDS011;6584;48.022;11.810;2022-12-19T00:06:00;32.45;;;18.02;;
13034;SDS011;6584;48.022;11.810;2022-12-19T00:08:27;35.83;;;18.58;;
13034;SDS011;6584;48.022;11.810;2022-12-19T00:11:00;33.85;;;18.23;;
13034;SDS011;6584;48.022;11.810;2022-12-19T00:13:29;34.65;;;19.08;;
13034;SDS011;6584;48.022;11.810;2022-12-19T00:15:59;34.40;;;18.92;;
13034;SDS011;6584;48.022;11.810;2022-12-19T00:18:26;32.55;;;18.02;;
13034;SDS011;6584;48.022;11.810;2022-12-19T00:20:59;32.63;;;18.85;;
13034;SDS011;6584;48.022;11.810;2022-12-19T00:23:27;34.42;;;19.38;;
13034;SDS011;6584;48.022;11.810;2022-12-19T00:25:54;32.47;;;19.50;;
13034;SDS011;6584;48.022;11.810;2022-12-19T00:28:19;34.65;;;19.40;;
13034;SDS011;6584;48.022;11.810;2022-12-19T00:30:45;35.10;;;19.42;;
13034;SDS011;6584;48.022;11.810;2022-12-19T00:33:11;38.28;;;20.48;;
13034;SDS011;6584;48.022;11.810;2022-12-19T00:35:37;34.05;;;19.40;;
13034;SDS011;6584;48.022;11.810;2022-12-19T00:38:02;32.75;;;18.90;;
13034;SDS011;6584;48.022;11.810;2022-12-19T00:40:28;33.80;;;19.10;;
13034;SDS011;6584;48.022;11.810;2022-12-19T00:42:54;30.27;;;17.35;;
13034;SDS011;6584;48.022;11.810;2022-12-19T00:45:19;32.42;;;18.17;;
13034;SDS011;6584;48.022;11.810;2022-12-19T00:47:45;34.25;;;18.92;;
13034;SDS011;6584;48.022;11.810;2022-12-19T00:50:11;32.95;;;18.27;;
13034;SDS011;6584;48.022;11.810;2022-12-19T00:52:36;33.08;;;18.65;;
13034;SDS011;6584;48.022;11.810;2022-12-19T00:55:02;33.85;;;18.55;;
13034;SDS011;6584;48.022;11.810;2022-12-19T00:57:28;36.53;;;19.20;;
13034;SDS011;6584;48.022;11.810;2022-12-19T00:59:54;33.75;;;18.40;;
13034;SDS011;6584;48.022;11.810;2022-12-19T01:02:19;33.72;;;18.55;;
13034;SDS011;6584;48.022;11.810;2022-12-19T01:04:45;34.95;;;19.67;;
13034;SDS011;6584;48.022;11.810;2022-12-19T01:07:10;36.60;;;19.92;;
13034;SDS011;6584;48.022;11.810;2022-12-19T01:09:36;38.88;;;20.08;;
13034;SDS011;6584;48.022;11.810;2022-12-19T01:12:03;38.83;;;20.75;;
13034;SDS011;6584;48.022;11.810;2022-12-19T01:14:48;35.17;;;19.95;;
13034;SDS011;6584;48.022;11.810;2022-12-19T01:17:15;36.28;;;20.77;;
13034;SDS011;6584;48.022;11.810;2022-12-19T01:19:41;38.83;;;20.15;;
13034;SDS011;6584;48.022;11.810;2022-12-19T01:22:06;33.83;;;19.08;;
13034;SDS011;6584;48.022;11.810;2022-12-19T01:24:32;33.20;;;18.08;;
13034;SDS011;6584;48.022;11.810;2022-12-19T01:26:58;31.40;;;17.95;;
13034;SDS011;6584;48.022;11.810;2022-12-19T01:29:23;33.17;;;19.65;;
13034;SDS011;6584;48.022;11.810;2022-12-19T01:31:49;35.58;;;19.65;;
13034;SDS011;6584;48.022;11.810;2022-12-19T01:34:14;31.25;;;18.77;;
13034;SDS011;6584;48.022;11.810;2022-12-19T01:36:40;33.08;;;18.95;;
13034;SDS011;6584;48.022;11.810;2022-12-19T01:39:05;32.80;;;19.02;;
13034;SDS011;6584;48.022;11.810;2022-12-19T01:41:31;35.85;;;19.25;;
13034;SDS011;6584;48.022;11.810;2022-12-19T01:43:58;33.83;;;18.70;;
13034;SDS011;6584;48.022;11.810;2022-12-19T01:46:33;31.50;;;18.70;;
13034;SDS011;6584;48.022;11.810;2022-12-19T01:49:05;30.63;;;18.23;;
13034;SDS011;6584;48.022;11.810;2022-12-19T01:51:40;35.85;;;19.52;;
13034;SDS011;6584;48.022;11.810;2022-12-19T01:54:11;31.75;;;17.90;;
13034;SDS011;6584;48.022;11.810;2022-12-19T01:56:41;35.63;;;19.52;;
13034;SDS011;6584;48.022;11.810;2022-12-19T01:59:13;33.28;;;19.10;;
13034;SDS011;6584;48.022;11.810;2022-12-19T02:01:43;35.20;;;19.58;;
13034;SDS011;6584;48.022;11.810;2022-12-19T02:04:10;34.70;;;19.13;;
13034;SDS011;6584;48.022;11.810;2022-12-19T02:06:37;32.25;;;18.40;;
13034;SDS011;6584;48.022;11.810;2022-12-19T02:09:04;33.35;;;20.05;;
13034;SDS011;6584;48.022;11.810;2022-12-19T02:11:30;30.65;;;18.42;;
13034;SDS011;6584;48.022;11.810;2022-12-19T02:13:55;31.23;;;18.98;;
13034;SDS011;6584;48.022;11.810;2022-12-19T02:19:15;33.47;;;19.63;;
13034;SDS011;6584;48.022;11.810;2022-12-19T02:22:06;32.60;;;18.80;;
13034;SDS011;6584;48.022;11.810;2022-12-19T02:30:04;34.17;;;19.40;;
13034;SDS011;6584;48.022;11.810;2022-12-19T02:40:49;31.00;;;18.58;;
13034;SDS011;6584;48.022;11.810;2022-12-19T02:43:20;31.85;;;18.10;;
13034;SDS011;6584;48.022;11.810;2022-12-19T02:45:48;31.05;;;19.00;;
13034;SDS011;6584;48.022;11.810;2022-12-19T02:48:16;31.08;;;19.02;;
13034;SDS011;6584;48.022;11.810;2022-12-19T02:50:43;28.88;;;18.65;;
13034;SDS011;6584;48.022;11.810;2022-12-19T02:53:11;32.67;;;19.27;;
13034;SDS011;6584;48.022;11.810;2022-12-19T02:56:12;31.10;;;19.25;;
13034;SDS011;6584;48.022;11.810;2022-12-19T03:04:16;29.42;;;18.75;;
13034;SDS011;6584;48.022;11.810;2022-12-19T03:07:11;30.98;;;18.60;;
13034;SDS011;6584;48.022;11.810;2022-12-19T03:09:51;31.10;;;18.48;;
13034;SDS011;6584;48.022;11.810;2022-12-19T03:12:35;28.65;;;17.52;;
13034;SDS011;6584;48.022;11.810;2022-12-19T03:15:07;30.92;;;18.23;;
13034;SDS011;6584;48.022;11.810;2022-12-19T03:17:33;30.65;;;17.77;;
13034;SDS011;6584;48.022;11.810;2022-12-19T03:20:04;30.15;;;18.08;;
13034;SDS011;6584;48.022;11.810;2022-12-19T03:22:33;28.42;;;17.20;;
13034;SDS011;6584;48.022;11.810;2022-12-19T03:24:59;31.13;;;18.10;;
13034;SDS011;6584;48.022;11.810;2022-12-19T03:27:26;28.00;;;17.58;;
13034;SDS011;6584;48.022;11.810;2022-12-19T03:29:55;27.98;;;17.02;;
13034;SDS011;6584;48.022;11.810;2022-12-19T03:32:33;28.85;;;17.35;;
13034;SDS011;6584;48.022;11.810;2022-12-19T03:35:03;31.38;;;18.67;;
13034;SDS011;6584;48.022;11.810;2022-12-19T03:37:38;33.35;;;18.45;;
13034;SDS011;6584;48.022;11.810;2022-12-19T03:40:07;27.52;;;17.60;;
13034;SDS011;6584;48.022;11.810;2022-12-19T03:42:39;32.88;;;18.65;;
13034;SDS011;6584;48.022;11.810;2022-12-19T03:45:44;32.72;;;18.17;;
13034;SDS011;6584;48.022;11.810;2022-12-19T03:56:45;29.95;;;16.95;;
13034;SDS011;6584;48.022;11.810;2022-12-19T03:59:18;30.85;;;17.55;;
13034;SDS011;6584;48.022;11.810;2022-12-19T04:01:55;29.23;;;17.35;;
13034;SDS011;6584;48.022;11.810;2022-12-19T04:04:22;31.80;;;17.67;;
13034;SDS011;6584;48.022;11.810;2022-12-19T04:06:49;28.10;;;17.50;;
13034;SDS011;6584;48.022;11.810;2022-12-19T04:09:16;27.45;;;16.65;;
13034;SDS011;6584;48.022;11.810;2022-12-19T04:11:46;32.00;;;18.73;;
13034;SDS011;6584;48.022;11.810;2022-12-19T04:14:19;30.90;;;18.25;;
13034;SDS011;6584;48.022;11.810;2022-12-19T04:19:26;29.17;;;17.50;;
13034;SDS011;6584;48.022;11.810;2022-12-19T04:22:00;31.58;;;17.92;;
13034;SDS011;6584;48.022;11.810;2022-12-19T04:24:32;29.60;;;16.85;;
13034;SDS011;6584;48.022;11.810;2022-12-19T04:26:58;32.13;;;18.48;;
13034;SDS011;6584;48.022;11.810;2022-12-19T04:29:27;28.00;;;17.13;;
13034;SDS011;6584;48.022;11.810;2022-12-19T04:31:56;29.25;;;17.52;;
13034;SDS011;6584;48.022;11.810;2022-12-19T04:34:22;35.65;;;19.83;;
13034;SDS011;6584;48.022;11.810;2022-12-19T04:36:47;31.02;;;16.80;;
13034;SDS011;6584;48.022;11.810;2022-12-19T04:39:15;29.02;;;17.25;;
13034;SDS011;6584;48.022;11.810;2022-12-19T04:41:40;28.73;;;17.90;;
13034;SDS011;6584;48.022;11.810;2022-12-19T04:44:06;31.35;;;17.88;;
13034;SDS011;6584;48.022;11.810;2022-12-19T04:46:31;29.00;;;17.27;;
13034;SDS011;6584;48.022;11.810;2022-12-19T04:48:57;41.58;;;22.98;;
13034;SDS011;6584;48.022;11.810;2022-12-19T04:51:23;38.13;;;21.90;;
13034;SDS011;6584;48.022;11.810;2022-12-19T04:53:48;32.92;;;18.30;;
13034;SDS011;6584;48.022;11.810;2022-12-19T04:56:14;31.55;;;18.00;;
13034;SDS011;6584;48.022;11.810;2022-12-19T04:58:39;32.05;;;18.08;;
13034;SDS011;6584;48.022;11.810;2022-12-19T05:01:06;32.45;;;18.50;;
13034;SDS011;6584;48.022;11.810;2022-12-19T05:03:32;30.90;;;16.77;;
13034;SDS011;6584;48.022;11.810;2022-12-19T05:06:03;30.20;;;17.80;;
13034;SDS011;6584;48.022;11.810;2022-12-19T05:08:29;33.08;;;18.02;;
13034;SDS011;6584;48.022;11.810;2022-12-19T05:10:57;32.28;;;18.38;;
13034;SDS011;6584;48.022;11.810;2022-12-19T05:13:27;31.60;;;17.75;;
13034;SDS011;6584;48.022;11.810;2022-12-19T05:16:01;29.80;;;17.75;;
13034;SDS011;6584;48.022;11.810;2022-12-19T05:18:29;33.03;;;17.65;;
13034;SDS011;6584;48.022;11.810;2022-12-19T05:20:55;29.30;;;16.60;;
13034;SDS011;6584;48.022;11.810;2022-12-19T05:23:21;32.83;;;19.50;;
13034;SDS011;6584;48.022;11.810;2022-12-19T05:25:47;30.20;;;17.38;;
13034;SDS011;6584;48.022;11.810;2022-12-19T05:28:13;31.98;;;17.80;;
13034;SDS011;6584;48.022;11.810;2022-12-19T05:30:39;30.65;;;17.60;;
13034;SDS011;6584;48.022;11.810;2022-12-19T05:33:04;32.75;;;17.13;;
13034;SDS011;6584;48.022;11.810;2022-12-19T05:35:30;44.22;;;24.48;;
13034;SDS011;6584;48.022;11.810;2022-12-19T05:37:56;38.42;;;20.02;;
13034;SDS011;6584;48.022;11.810;2022-12-19T05:40:21;37.97;;;21.25;;
13034;SDS011;6584;48.022;11.810;2022-12-19T05:42:47;38.42;;;20.63;;
13034;SDS011;6584;48.022;11.810;2022-12-19T05:45:12;36.00;;;19.25;;
13034;SDS011;6584;48.022;11.810;2022-12-19T05:47:38;33.50;;;18.70;;
13034;SDS011;6584;48.022;11.810;2022-12-19T05:50:03;31.88;;;17.30;;
13034;SDS011;6584;48.022;11.810;2022-12-19T05:52:29;29.38;;;16.42;;
13034;SDS011;6584;48.022;11.810;2022-12-19T05:54:55;29.75;;;17.27;;
13034;SDS011;6584;48.022;11.810;2022-12-19T05:57:21;29.83;;;17.35;;
13034;SDS011;6584;48.022;11.810;2022-12-19T05:59:46;33.42;;;18.95;;
13034;SDS011;6584;48.022;11.810;2022-12-19T06:02:12;33.55;;;18.23;;
13034;SDS011;6584;48.022;11.810;2022-12-19T06:04:37;34.45;;;18.50;;
13034;SDS011;6584;48.022;11.810;2022-12-19T06:07:03;32.75;;;19.48;;
13034;SDS011;6584;48.022;11.810;2022-12-19T06:09:29;36.72;;;21.65;;
13034;SDS011;6584;48.022;11.810;2022-12-19T06:11:55;34.15;;;19.48;;
13034;SDS011;6584;48.022;11.810;2022-12-19T06:14:20;36.10;;;21.63;;
13034;SDS011;6584;48.022;11.810;2022-12-19T06:16:46;29.27;;;17.20;;
13034;SDS011;6584;48.022;11.810;2022-12-19T06:19:11;32.00;;;18.95;;
13034;SDS011;6584;48.022;11.810;2022-12-19T06:21:37;38.42;;;21.95;;
13034;SDS011;6584;48.022;11.810;2022-12-19T06:24:03;45.13;;;26.08;;
13034;SDS011;6584;48.022;11.810;2022-12-19T06:26:28;36.50;;;20.77;;
13034;SDS011;6584;48.022;11.810;2022-12-19T06:28:55;43.85;;;25.20;;
13034;SDS011;6584;48.022;11.810;2022-12-19T06:31:21;40.22;;;22.52;;
13034;SDS011;6584;48.022;11.810;2022-12-19T06:33:48;40.17;;;23.63;;
13034;SDS011;6584;48.022;11.810;2022-12-19T06:36:19;42.40;;;23.88;;
13034;SDS011;6584;48.022;11.810;2022-12-19T06:38:52;46.17;;;24.98;;
13034;SDS011;6584;48.022;11.810;2022-12-19T06:41:19;47.83;;;25.92;;
13034;SDS011;6584;48.022;11.810;2022-12-19T06:44:05;39.28;;;20.83;;
13034;SDS011;6584;48.022;11.810;2022-12-19T06:46:31;52.45;;;27.17;;
13034;SDS011;6584;48.022;11.810;2022-12-19T06:48:58;38.75;;;21.08;;
13034;SDS011;6584;48.022;11.810;2022-12-19T06:51:24;40.78;;;21.30;;
13034;SDS011;6584;48.022;11.810;2022-12-19T06:53:49;54.38;;;30.83;;
13034;SDS011;6584;48.022;11.810;2022-12-19T06:56:15;49.13;;;27.23;;
13034;SDS011;6584;48.022;11.810;2022-12-19T06:58:41;49.03;;;26.67;;
13034;SDS011;6584;48.022;11.810;2022-12-19T07:01:14;88.85;;;42.88;;
13034;SDS011;6584;48.022;11.810;2022-12-19T07:03:49;67.35;;;35.22;;
13034;SDS011;6584;48.022;11.810;2022-12-19T07:06:14;64.20;;;34.97;;
13034;SDS011;6584;48.022;11.810;2022-12-19T07:08:40;52.17;;;30.52;;
13034;SDS011;6584;48.022;11.810;2022-12-19T07:11:06;36.75;;;21.23;;
13034;SDS011;6584;48.022;11.810;2022-12-19T07:13:32;37.10;;;21.17;;
13034;SDS011;6584;48.022;11.810;2022-12-19T07:15:57;55.38;;;25.48;;
13034;SDS011;6584;48.022;11.810;2022-12-19T07:18:25;41.22;;;21.60;;
13034;SDS011;6584;48.022;11.810;2022-12-19T07:20:52;34.40;;;19.52;;
13034;SDS011;6584;48.022;11.810;2022-12-19T07:23:19;32.13;;;17.77;;
13034;SDS011;6584;48.022;11.810;2022-12-19T07:25:46;38.08;;;19.23;;
13034;SDS011;6584;48.022;11.810;2022-12-19T07:28:11;33.05;;;17.92;;
13034;SDS011;6584;48.022;11.810;2022-12-19T07:30:38;25.65;;;14.80;;
13034;SDS011;6584;48.022;11.810;2022-12-19T07:33:03;23.42;;;12.88;;
13034;SDS011;6584;48.022;11.810;2022-12-19T07:35:29;22.05;;;12.55;;
13034;SDS011;6584;48.022;11.810;2022-12-19T07:37:59;25.90;;;14.35;;
13034;SDS011;6584;48.022;11.810;2022-12-19T07:40:29;37.33;;;17.52;;
13034;SDS011;6584;48.022;11.810;2022-12-19T07:42:57;77.15;;;38.90;;
13034;SDS011;6584;48.022;11.810;2022-12-19T07:45:24;33.83;;;18.80;;
13034;SDS011;6584;48.022;11.810;2022-12-19T07:47:50;19.40;;;13.80;;
13034;SDS011;6584;48.022;11.810;2022-12-19T07:50:16;21.70;;;13.02;;
13034;SDS011;6584;48.022;11.810;2022-12-19T07:52:41;21.02;;;12.75;;
13034;SDS011;6584;48.022;11.810;2022-12-19T07:55:07;17.95;;;10.57;;
13034;SDS011;6584;48.022;11.810;2022-12-19T07:57:33;20.17;;;13.45;;
13034;SDS011;6584;48.022;11.810;2022-12-19T07:59:58;22.70;;;13.68;;
13034;SDS011;6584;48.022;11.810;2022-12-19T08:02:24;22.13;;;13.63;;
13034;SDS011;6584;48.022;11.810;2022-12-19T08:04:49;21.42;;;12.63;;
13034;SDS011;6584;48.022;11.810;2022-12-19T08:07:15;24.48;;;14.88;;
13034;SDS011;6584;48.022;11.810;2022-12-19T08:09:41;26.65;;;17.85;;
13034;SDS011;6584;48.022;11.810;2022-12-19T08:12:06;34.13;;;22.05;;
13034;SDS011;6584;48.022;11.810;2022-12-19T08:14:32;23.83;;;14.55;;
13034;SDS011;6584;48.022;11.810;2022-12-19T08:16:58;20.38;;;13.48;;
13034;SDS011;6584;48.022;11.810;2022-12-19T08:19:23;18.90;;;12.30;;
13034;SDS011;6584;48.022;11.810;2022-12-19T08:21:49;44.35;;;27.83;;
13034;SDS011;6584;48.022;11.810;2022-12-19T08:24:14;49.33;;;30.33;;
13034;SDS011;6584;48.022;11.810;2022-12-19T08:26:41;41.17;;;25.35;;
13034;SDS011;6584;48.022;11.810;2022-12-19T08:29:06;32.10;;;20.38;;
13034;SDS011;6584;48.022;11.810;2022-12-19T08:31:33;30.27;;;19.10;;
13034;SDS011;6584;48.022;11.810;2022-12-19T08:33:58;28.60;;;17.27;;
13034;SDS011;6584;48.022;11.810;2022-12-19T08:36:24;24.60;;;17.02;;
13034;SDS011;6584;48.022;11.810;2022-12-19T08:38:50;25.67;;;17.05;;
13034;SDS011;6584;48.022;11.810;2022-12-19T08:41:16;25.73;;;17.38;;
13034;SDS011;6584;48.022;11.810;2022-12-19T08:43:42;21.42;;;14.20;;
13034;SDS011;6584;48.022;11.810;2022-12-19T08:46:11;18.23;;;11.80;;
13034;SDS011;6584;48.022;11.810;2022-12-19T08:48:37;18.23;;;11.77;;
13034;SDS011;6584;48.022;11.810;2022-12-19T08:51:12;29.83;;;17.63;;
13034;SDS011;6584;48.022;11.810;2022-12-19T08:53:39;15.77;;;10.70;;
13034;SDS011;6584;48.022;11.810;2022-12-19T08:56:07;24.13;;;12.90;;
13034;SDS011;6584;48.022;11.810;2022-12-19T08:58:36;42.05;;;23.90;;
13034;SDS011;6584;48.022;11.810;2022-12-19T09:01:02;38.72;;;20.85;;
13034;SDS011;6584;48.022;11.810;2022-12-19T09:03:31;42.13;;;21.67;;
13034;SDS011;6584;48.022;11.810;2022-12-19T09:05:57;22.80;;;14.45;;
13034;SDS011;6584;48.022;11.810;2022-12-19T09:08:25;38.55;;;20.48;;
13034;SDS011;6584;48.022;11.810;2022-12-19T09:11:35;30.33;;;18.10;;
13034;SDS011;6584;48.022;11.810;2022-12-19T09:13:43;32.85;;;18.42;;
13034;SDS011;6584;48.022;11.810;2022-12-19T09:16:16;26.90;;;17.45;;
13034;SDS011;6584;48.022;11.810;2022-12-19T09:18:45;29.58;;;17.98;;
13034;SDS011;6584;48.022;11.810;2022-12-19T09:21:13;33.15;;;19.92;;
13034;SDS011;6584;48.022;11.810;2022-12-19T09:23:39;31.13;;;20.67;;
13034;SDS011;6584;48.022;11.810;2022-12-19T09:26:09;24.45;;;14.68;;
13034;SDS011;6584;48.022;11.810;2022-12-19T09:28:36;24.67;;;16.85;;
13034;SDS011;6584;48.022;11.810;2022-12-19T09:31:05;24.17;;;15.95;;
13034;SDS011;6584;48.022;11.810;2022-12-19T09:33:32;27.60;;;16.85;;
13034;SDS011;6584;48.022;11.810;2022-12-19T09:35:59;24.70;;;16.10;;
13034;SDS011;6584;48.022;11.810;2022-12-19T09:38:26;22.45;;;13.55;;
13034;SDS011;6584;48.022;11.810;2022-12-19T09:46:19;18.70;;;11.35;;
13034;SDS011;6584;48.022;11.810;2022-12-19T09:48:52;18.33;;;12.43;;
13034;SDS011;6584;48.022;11.810;2022-12-19T09:51:26;19.40;;;12.40;;
13034;SDS011;6584;48.022;11.810;2022-12-19T09:54:00;19.25;;;12.20;;
13034;SDS011;6584;48.022;11.810;2022-12-19T09:56:32;16.52;;;12.57;;
13034;SDS011;6584;48.022;11.810;2022-12-19T09:59:12;21.92;;;12.90;;
13034;SDS011;6584;48.022;11.810;2022-12-19T10:01:54;21.08;;;12.77;;
13034;SDS011;6584;48.022;11.810;2022-12-19T10:04:23;21.80;;;13.95;;
13034;SDS011;6584;48.022;11.810;2022-12-19T10:06:51;24.83;;;15.52;;
13034;SDS011;6584;48.022;11.810;2022-12-19T10:09:17;25.40;;;15.60;;
13034;SDS011;6584;48.022;11.810;2022-12-19T10:17:26;21.10;;;14.02;;
13034;SDS011;6584;48.022;11.810;2022-12-19T10:25:58;23.55;;;14.77;;
13034;SDS011;6584;48.022;11.810;2022-12-19T10:28:34;27.70;;;16.67;;
13034;SDS011;6584;48.022;11.810;2022-12-19T10:36:38;22.58;;;14.77;;
13034;SDS011;6584;48.022;11.810;2022-12-19T10:39:11;22.27;;;14.75;;
13034;SDS011;6584;48.022;11.810;2022-12-19T10:41:53;24.65;;;15.73;;
13034;SDS011;6584;48.022;11.810;2022-12-19T10:44:21;23.10;;;15.85;;
13034;SDS011;6584;48.022;11.810;2022-12-19T10:46:49;22.67;;;15.45;;
13034;SDS011;6584;48.022;11.810;2022-12-19T10:49:19;24.50;;;16.30;;
13034;SDS011;6584;48.022;11.810;2022-12-19T10:54:24;23.45;;;15.88;;
13034;SDS011;6584;48.022;11.810;2022-12-19T11:02:45;26.60;;;16.77;;
13034;SDS011;6584;48.022;11.810;2022-12-19T11:07:59;25.70;;;18.05;;
13034;SDS011;6584;48.022;11.810;2022-12-19T11:15:58;23.15;;;16.27;;
13034;SDS011;6584;48.022;11.810;2022-12-19T11:21:02;23.60;;;16.35;;
13034;SDS011;6584;48.022;11.810;2022-12-19T11:23:32;24.80;;;15.95;;
13034;SDS011;6584;48.022;11.810;2022-12-19T11:26:03;22.75;;;16.35;;
13034;SDS011;6584;48.022;11.810;2022-12-19T11:28:36;26.20;;;17.73;;
13034;SDS011;6584;48.022;11.810;2022-12-19T11:31:09;26.15;;;17.67;;
13034;SDS011;6584;48.022;11.810;2022-12-19T11:33:45;27.63;;;18.20;;
13034;SDS011;6584;48.022;11.810;2022-12-19T11:36:31;28.13;;;18.52;;
13034;SDS011;6584;48.022;11.810;2022-12-19T11:38:59;26.15;;;17.13;;
13034;SDS011;6584;48.022;11.810;2022-12-19T11:41:28;25.27;;;17.65;;
13034;SDS011;6584;48.022;11.810;2022-12-19T11:44:00;25.73;;;18.52;;
13034;SDS011;6584;48.022;11.810;2022-12-19T11:46:46;23.73;;;17.52;;
13034;SDS011;6584;48.022;11.810;2022-12-19T11:54:49;39.38;;;28.65;;
13034;SDS011;6584;48.022;11.810;2022-12-19T11:57:31;32.10;;;21.55;;
13034;SDS011;6584;48.022;11.810;2022-12-19T11:59:57;24.60;;;17.38;;
13034;SDS011;6584;48.022;11.810;2022-12-19T12:07:47;15.00;;;10.75;;
13034;SDS011;6584;48.022;11.810;2022-12-19T12:10:37;14.48;;;10.18;;
13034;SDS011;6584;48.022;11.810;2022-12-19T12:16:13;15.15;;;9.63;;
13034;SDS011;6584;48.022;11.810;2022-12-19T12:21:49;15.82;;;10.20;;
13034;SDS011;6584;48.022;11.810;2022-12-19T12:24:34;14.35;;;9.95;;
13034;SDS011;6584;48.022;11.810;2022-12-19T12:30:08;14.38;;;9.38;;
13034;SDS011;6584;48.022;11.810;2022-12-19T12:37:49;15.20;;;11.25;;
13034;SDS011;6584;48.022;11.810;2022-12-19T12:40:44;15.30;;;10.27;;
13034;SDS011;6584;48.022;11.810;2022-12-19T12:46:19;21.45;;;12.40;;
13034;SDS011;6584;48.022;11.810;2022-12-19T12:48:50;22.15;;;12.13;;
13034;SDS011;6584;48.022;11.810;2022-12-19T12:51:22;18.60;;;12.18;;
13034;SDS011;6584;48.022;11.810;2022-12-19T12:53:49;22.05;;;11.90;;
13034;SDS011;6584;48.022;11.810;2022-12-19T12:56:36;15.77;;;10.60;;
13034;SDS011;6584;48.022;11.810;2022-12-19T12:59:05;18.45;;;10.88;;
13034;SDS011;6584;48.022;11.810;2022-12-19T13:01:43;15.80;;;10.73;;
13034;SDS011;6584;48.022;11.810;2022-12-19T13:04:34;17.40;;;11.15;;
13034;SDS011;6584;48.022;11.810;2022-12-19T13:07:50;29.17;;;17.95;;
13034;SDS011;6584;48.022;11.810;2022-12-19T13:10:21;25.80;;;16.77;;
13034;SDS011;6584;48.022;11.810;2022-12-19T13:12:57;20.20;;;13.52;;
13034;SDS011;6584;48.022;11.810;2022-12-19T13:15:31;18.27;;;11.98;;
13034;SDS011;6584;48.022;11.810;2022-12-19T13:21:04;15.18;;;10.25;;
13034;SDS011;6584;48.022;11.810;2022-12-19T13:23:33;15.05;;;10.93;;
13034;SDS011;6584;48.022;11.810;2022-12-19T13:26:20;16.70;;;11.85;;
13034;SDS011;6584;48.022;11.810;2022-12-19T13:29:26;19.88;;;13.13;;
13034;SDS011;6584;48.022;11.810;2022-12-19T13:32:11;21.70;;;14.43;;
13034;SDS011;6584;48.022;11.810;2022-12-19T13:34:39;25.30;;;17.30;;
13034;SDS011;6584;48.022;11.810;2022-12-19T13:40:05;17.95;;;12.25;;
13034;SDS011;6584;48.022;11.810;2022-12-19T13:42:35;19.23;;;12.32;;
13034;SDS011;6584;48.022;11.810;2022-12-19T13:45:26;19.40;;;12.93;;
13034;SDS011;6584;48.022;11.810;2022-12-19T13:47:55;18.90;;;13.00;;
13034;SDS011;6584;48.022;11.810;2022-12-19T13:53:08;18.52;;;12.32;;
13034;SDS011;6584;48.022;11.810;2022-12-19T13:55:39;16.23;;;11.85;;
13034;SDS011;6584;48.022;11.810;2022-12-19T13:58:04;16.25;;;12.05;;
13034;SDS011;6584;48.022;11.810;2022-12-19T14:00:32;17.00;;;12.15;;
13034;SDS011;6584;48.022;11.810;2022-12-19T14:03:00;18.92;;;12.85;;
13034;SDS011;6584;48.022;11.810;2022-12-19T14:05:30;17.73;;;12.38;;
13034;SDS011;6584;48.022;11.810;2022-12-19T14:07:57;19.05;;;13.50;;
13034;SDS011;6584;48.022;11.810;2022-12-19T14:10:30;16.65;;;12.65;;
13034;SDS011;6584;48.022;11.810;2022-12-19T14:12:58;20.55;;;14.68;;
13034;SDS011;6584;48.022;11.810;2022-12-19T14:15:46;19.17;;;14.20;;
13034;SDS011;6584;48.022;11.810;2022-12-19T14:20:44;21.10;;;15.15;;
13034;SDS011;6584;48.022;11.810;2022-12-19T14:23:10;22.23;;;15.43;;
13034;SDS011;6584;48.022;11.810;2022-12-19T14:25:45;21.80;;;15.23;;
13034;SDS011;6584;48.022;11.810;2022-12-19T14:28:18;22.55;;;14.82;;
13034;SDS011;6584;48.022;11.810;2022-12-19T14:30:54;21.10;;;14.70;;
13034;SDS011;6584;48.022;11.810;2022-12-19T14:33:27;20.90;;;15.48;;
13034;SDS011;6584;48.022;11.810;2022-12-19T14:36:07;21.30;;;15.65;;
13034;SDS011;6584;48.022;11.810;2022-12-19T14:38:32;20.40;;;15.25;;
13034;SDS011;6584;48.022;11.810;2022-12-19T14:40:58;21.45;;;15.68;;
13034;SDS011;6584;48.022;11.810;2022-12-19T14:43:26;21.40;;;15.02;;
13034;SDS011;6584;48.022;11.810;2022-12-19T14:51:34;23.85;;;17.90;;
13034;SDS011;6584;48.022;11.810;2022-12-19T14:56:43;27.70;;;18.85;;
13034;SDS011;6584;48.022;11.810;2022-12-19T14:59:29;26.35;;;19.42;;
13034;SDS011;6584;48.022;11.810;2022-12-19T15:04:38;25.83;;;18.08;;
13034;SDS011;6584;48.022;11.810;2022-12-19T15:07:16;26.83;;;20.08;;
13034;SDS011;6584;48.022;11.810;2022-12-19T15:12:14;24.02;;;18.23;;
13034;SDS011;6584;48.022;11.810;2022-12-19T15:15:14;25.23;;;18.00;;
13034;SDS011;6584;48.022;11.810;2022-12-19T15:18:02;24.00;;;17.48;;
13034;SDS011;6584;48.022;11.810;2022-12-19T15:20:39;26.65;;;17.48;;
13034;SDS011;6584;48.022;11.810;2022-12-19T15:23:04;23.33;;;17.10;;
13034;SDS011;6584;48.022;11.810;2022-12-19T15:25:30;23.40;;;16.67;;
13034;SDS011;6584;48.022;11.810;2022-12-19T15:27:55;23.75;;;16.80;;
13034;SDS011;6584;48.022;11.810;2022-12-19T15:30:21;24.45;;;16.23;;
13034;SDS011;6584;48.022;11.810;2022-12-19T15:32:47;22.75;;;16.38;;
13034;SDS011;6584;48.022;11.810;2022-12-19T15:35:16;23.02;;;16.23;;
13034;SDS011;6584;48.022;11.810;2022-12-19T15:37:43;22.60;;;15.40;;
13034;SDS011;6584;48.022;11.810;2022-12-19T15:40:13;24.48;;;16.67;;
13034;SDS011;6584;48.022;11.810;2022-12-19T15:42:41;23.30;;;16.75;;
13034;SDS011;6584;48.022;11.810;2022-12-19T15:45:12;24.52;;;17.55;;
13034;SDS011;6584;48.022;11.810;2022-12-19T15:47:40;22.98;;;16.58;;
13034;SDS011;6584;48.022;11.810;2022-12-19T15:50:14;27.95;;;19.45;;
13034;SDS011;6584;48.022;11.810;2022-12-19T15:52:43;28.83;;;20.52;;
13034;SDS011;6584;48.022;11.810;2022-12-19T15:55:13;34.53;;;24.60;;
13034;SDS011;6584;48.022;11.810;2022-12-19T15:57:40;32.38;;;23.92;;
13034;SDS011;6584;48.022;11.810;2022-12-19T16:00:16;32.10;;;25.50;;
13034;SDS011;6584;48.022;11.810;2022-12-19T16:02:45;35.85;;;27.17;;
13034;SDS011;6584;48.022;11.810;2022-12-19T16:05:12;38.13;;;28.85;;
13034;SDS011;6584;48.022;11.810;2022-12-19T16:07:38;39.28;;;30.45;;
13034;SDS011;6584;48.022;11.810;2022-12-19T16:10:03;36.90;;;27.00;;
13034;SDS011;6584;48.022;11.810;2022-12-19T16:12:33;37.03;;;27.45;;
13034;SDS011;6584;48.022;11.810;2022-12-19T16:15:01;36.13;;;27.08;;
13034;SDS011;6584;48.022;11.810;2022-12-19T16:17:29;34.25;;;25.08;;
13034;SDS011;6584;48.022;11.810;2022-12-19T16:19:56;33.22;;;24.65;;
13034;SDS011;6584;48.022;11.810;2022-12-19T16:22:24;33.15;;;24.80;;
13034;SDS011;6584;48.022;11.810;2022-12-19T16:24:52;32.45;;;25.10;;
13034;SDS011;6584;48.022;11.810;2022-12-19T16:29:48;30.55;;;22.50;;
13034;SDS011;6584;48.022;11.810;2022-12-19T16:32:15;28.98;;;20.85;;
13034;SDS011;6584;48.022;11.810;2022-12-19T16:34:41;27.85;;;20.95;;
13034;SDS011;6584;48.022;11.810;2022-12-19T16:37:07;25.23;;;19.55;;
13034;SDS011;6584;48.022;11.810;2022-12-19T16:39:33;27.17;;;20.13;;
13034;SDS011;6584;48.022;11.810;2022-12-19T16:41:58;27.90;;;21.23;;
13034;SDS011;6584;48.022;11.810;2022-12-19T16:44:24;28.45;;;21.65;;
13034;SDS011;6584;48.022;11.810;2022-12-19T16:46:50;27.65;;;21.10;;